sensor_id;sensor_type;location;lat;lon;timestamp;P1;durP1;ratioP1;P2;durP2;ratioP2
19301;SDS011;9785;59.362;12.152;2023-09-12T00:01:29;26.87;;;15.30;;
19301;SDS011;9785;59.362;12.152;2023-09-12T00:03:59;25.73;;;14.67;;
19301;SDS011;9785;59.362;12.152;2023-09-12T00:06:27;24.53;;;15.87;;
19301;SDS011;9785;59.362;12.152;2023-09-12T00:08:56;24.70;;;15.67;;
19301;SDS011;9785;59.362;12.152;2023-09-12T00:11:24;25.60;;;15.93;;
19301;SDS011;9785;59.362;12.152;2023-09-12T00:13:53;27.13;;;16.03;;
19301;SDS011;9785;59.362;12.152;2023-09-12T00:16:21;26.90;;;17.23;;
19301;SDS011;9785;59.362;12.152;2023-09-12T00:18:51;26.73;;;16.13;;
19301;SDS011;9785;59.362;12.152;2023-09-12T00:21:19;26.83;;;17.47;;
19301;SDS011;9785;59.362;12.152;2023-09-12T00:23:48;26.00;;;16.77;;
19301;SDS011;9785;59.362;12.152;2023-09-12T00:26:16;32.80;;;19.00;;
19301;SDS011;9785;59.362;12.152;2023-09-12T00:28:44;34.20;;;18.60;;
19301;SDS011;9785;59.362;12.152;2023-09-12T00:31:13;34.50;;;17.50;;
19301;SDS011;9785;59.362;12.152;2023-09-12T00:33:41;30.97;;;17.63;;
19301;SDS011;9785;59.362;12.152;2023-09-12T00:36:11;30.73;;;16.83;;
19301;SDS011;9785;59.362;12.152;2023-09-12T00:38:39;31.37;;;18.57;;
19301;SDS011;9785;59.362;12.152;2023-09-12T00:41:08;30.07;;;18.17;;
19301;SDS011;9785;59.362;12.152;2023-09-12T00:43:36;32.80;;;18.37;;
19301;SDS011;9785;59.362;12.152;2023-09-12T00:46:05;29.70;;;18.97;;
19301;SDS011;9785;59.362;12.152;2023-09-12T00:48:33;32.07;;;19.13;;
19301;SDS011;9785;59.362;12.152;2023-09-12T00:51:03;25.03;;;17.43;;
19301;SDS011;9785;59.362;12.152;2023-09-12T00:53:34;36.03;;;19.50;;
19301;SDS011;9785;59.362;12.152;2023-09-12T00:56:03;31.47;;;18.73;;
19301;SDS011;9785;59.362;12.152;2023-09-12T00:58:32;30.57;;;18.70;;
19301;SDS011;9785;59.362;12.152;2023-09-12T01:01:01;27.70;;;17.77;;
19301;SDS011;9785;59.362;12.152;2023-09-12T01:03:31;26.20;;;16.23;;
19301;SDS011;9785;59.362;12.152;2023-09-12T01:06:00;30.33;;;17.60;;
19301;SDS011;9785;59.362;12.152;2023-09-12T01:08:30;23.70;;;17.03;;
19301;SDS011;9785;59.362;12.152;2023-09-12T01:11:01;33.60;;;17.90;;
19301;SDS011;9785;59.362;12.152;2023-09-12T01:13:29;24.83;;;16.07;;
19301;SDS011;9785;59.362;12.152;2023-09-12T01:15:58;23.17;;;15.63;;
19301;SDS011;9785;59.362;12.152;2023-09-12T01:18:26;25.90;;;16.20;;
19301;SDS011;9785;59.362;12.152;2023-09-12T01:21:04;25.80;;;16.33;;
19301;SDS011;9785;59.362;12.152;2023-09-12T01:23:49;26.63;;;16.53;;
19301;SDS011;9785;59.362;12.152;2023-09-12T01:26:38;24.27;;;15.47;;
19301;SDS011;9785;59.362;12.152;2023-09-12T01:29:17;25.70;;;15.07;;
19301;SDS011;9785;59.362;12.152;2023-09-12T01:31:48;23.67;;;15.43;;
19301;SDS011;9785;59.362;12.152;2023-09-12T01:34:18;24.00;;;15.27;;
19301;SDS011;9785;59.362;12.152;2023-09-12T01:36:46;24.50;;;15.07;;
19301;SDS011;9785;59.362;12.152;2023-09-12T01:39:15;23.00;;;13.33;;
19301;SDS011;9785;59.362;12.152;2023-09-12T01:41:43;22.20;;;13.97;;
19301;SDS011;9785;59.362;12.152;2023-09-12T01:44:16;20.63;;;14.07;;
19301;SDS011;9785;59.362;12.152;2023-09-12T01:46:46;22.47;;;14.43;;
19301;SDS011;9785;59.362;12.152;2023-09-12T01:49:16;25.20;;;14.17;;
19301;SDS011;9785;59.362;12.152;2023-09-12T01:51:46;20.97;;;13.47;;
19301;SDS011;9785;59.362;12.152;2023-09-12T01:54:15;23.10;;;14.43;;
19301;SDS011;9785;59.362;12.152;2023-09-12T01:56:44;23.80;;;15.20;;
19301;SDS011;9785;59.362;12.152;2023-09-12T01:59:13;24.63;;;14.20;;
19301;SDS011;9785;59.362;12.152;2023-09-12T02:01:43;26.07;;;15.43;;
19301;SDS011;9785;59.362;12.152;2023-09-12T02:04:11;21.67;;;14.67;;
19301;SDS011;9785;59.362;12.152;2023-09-12T02:06:40;25.90;;;15.50;;
19301;SDS011;9785;59.362;12.152;2023-09-12T02:09:08;21.47;;;13.30;;
19301;SDS011;9785;59.362;12.152;2023-09-12T02:11:36;23.23;;;14.67;;
19301;SDS011;9785;59.362;12.152;2023-09-12T02:14:04;22.03;;;14.20;;
19301;SDS011;9785;59.362;12.152;2023-09-12T02:16:35;21.47;;;13.57;;
19301;SDS011;9785;59.362;12.152;2023-09-12T02:19:10;22.80;;;13.47;;
19301;SDS011;9785;59.362;12.152;2023-09-12T02:21:39;21.60;;;12.90;;
19301;SDS011;9785;59.362;12.152;2023-09-12T02:24:08;21.90;;;12.80;;
19301;SDS011;9785;59.362;12.152;2023-09-12T02:26:36;24.23;;;12.93;;
19301;SDS011;9785;59.362;12.152;2023-09-12T02:29:05;19.33;;;12.03;;
19301;SDS011;9785;59.362;12.152;2023-09-12T02:31:33;18.80;;;13.03;;
19301;SDS011;9785;59.362;12.152;2023-09-12T02:34:02;20.10;;;13.13;;
19301;SDS011;9785;59.362;12.152;2023-09-12T02:36:32;18.17;;;11.97;;
19301;SDS011;9785;59.362;12.152;2023-09-12T02:39:00;22.23;;;12.20;;
19301;SDS011;9785;59.362;12.152;2023-09-12T02:41:29;17.17;;;11.67;;
19301;SDS011;9785;59.362;12.152;2023-09-12T02:43:58;16.60;;;11.80;;
19301;SDS011;9785;59.362;12.152;2023-09-12T02:46:26;17.50;;;12.10;;
19301;SDS011;9785;59.362;12.152;2023-09-12T02:48:54;14.90;;;11.47;;
19301;SDS011;9785;59.362;12.152;2023-09-12T02:51:23;18.07;;;11.83;;
19301;SDS011;9785;59.362;12.152;2023-09-12T02:53:54;16.47;;;10.90;;
19301;SDS011;9785;59.362;12.152;2023-09-12T02:56:22;14.83;;;9.87;;
19301;SDS011;9785;59.362;12.152;2023-09-12T02:58:50;14.77;;;9.87;;
19301;SDS011;9785;59.362;12.152;2023-09-12T03:01:19;14.00;;;10.03;;
19301;SDS011;9785;59.362;12.152;2023-09-12T03:03:50;11.20;;;9.30;;
19301;SDS011;9785;59.362;12.152;2023-09-12T03:06:18;11.50;;;8.70;;
19301;SDS011;9785;59.362;12.152;2023-09-12T03:08:47;13.60;;;9.23;;
19301;SDS011;9785;59.362;12.152;2023-09-12T03:11:17;12.30;;;8.47;;
19301;SDS011;9785;59.362;12.152;2023-09-12T03:13:46;11.27;;;8.33;;
19301;SDS011;9785;59.362;12.152;2023-09-12T03:16:14;9.33;;;7.87;;
19301;SDS011;9785;59.362;12.152;2023-09-12T03:18:43;10.80;;;8.60;;
19301;SDS011;9785;59.362;12.152;2023-09-12T03:21:12;11.87;;;8.17;;
19301;SDS011;9785;59.362;12.152;2023-09-12T03:23:40;10.47;;;8.33;;
19301;SDS011;9785;59.362;12.152;2023-09-12T03:26:08;10.63;;;7.80;;
19301;SDS011;9785;59.362;12.152;2023-09-12T03:28:38;7.83;;;7.03;;
19301;SDS011;9785;59.362;12.152;2023-09-12T03:31:09;9.77;;;6.70;;
19301;SDS011;9785;59.362;12.152;2023-09-12T03:33:39;9.57;;;7.43;;
19301;SDS011;9785;59.362;12.152;2023-09-12T03:36:08;7.93;;;6.43;;
19301;SDS011;9785;59.362;12.152;2023-09-12T03:38:37;9.60;;;6.93;;
19301;SDS011;9785;59.362;12.152;2023-09-12T03:41:06;8.87;;;7.17;;
19301;SDS011;9785;59.362;12.152;2023-09-12T03:43:34;8.73;;;6.80;;
19301;SDS011;9785;59.362;12.152;2023-09-12T03:46:05;7.83;;;6.77;;
19301;SDS011;9785;59.362;12.152;2023-09-12T03:48:33;8.20;;;6.80;;
19301;SDS011;9785;59.362;12.152;2023-09-12T03:51:03;8.33;;;6.60;;
19301;SDS011;9785;59.362;12.152;2023-09-12T03:53:31;11.93;;;7.10;;
19301;SDS011;9785;59.362;12.152;2023-09-12T03:56:00;11.13;;;7.07;;
19301;SDS011;9785;59.362;12.152;2023-09-12T03:58:28;9.67;;;7.07;;
19301;SDS011;9785;59.362;12.152;2023-09-12T04:00:56;7.47;;;6.53;;
19301;SDS011;9785;59.362;12.152;2023-09-12T04:03:26;10.37;;;7.20;;
19301;SDS011;9785;59.362;12.152;2023-09-12T04:05:54;9.60;;;7.10;;
19301;SDS011;9785;59.362;12.152;2023-09-12T04:08:23;11.03;;;7.17;;
19301;SDS011;9785;59.362;12.152;2023-09-12T04:10:51;8.93;;;6.67;;
19301;SDS011;9785;59.362;12.152;2023-09-12T04:13:20;11.47;;;6.83;;
19301;SDS011;9785;59.362;12.152;2023-09-12T04:15:48;12.70;;;7.60;;
19301;SDS011;9785;59.362;12.152;2023-09-12T04:18:17;9.37;;;6.70;;
19301;SDS011;9785;59.362;12.152;2023-09-12T04:20:46;15.03;;;7.73;;
19301;SDS011;9785;59.362;12.152;2023-09-12T04:23:15;11.67;;;7.30;;
19301;SDS011;9785;59.362;12.152;2023-09-12T04:25:45;10.10;;;6.90;;
19301;SDS011;9785;59.362;12.152;2023-09-12T04:28:13;11.47;;;6.67;;
19301;SDS011;9785;59.362;12.152;2023-09-12T04:30:42;11.83;;;7.33;;
19301;SDS011;9785;59.362;12.152;2023-09-12T04:33:12;9.27;;;6.70;;
19301;SDS011;9785;59.362;12.152;2023-09-12T04:35:41;10.27;;;5.63;;
19301;SDS011;9785;59.362;12.152;2023-09-12T04:38:11;9.80;;;6.47;;
19301;SDS011;9785;59.362;12.152;2023-09-12T04:40:40;11.40;;;6.57;;
19301;SDS011;9785;59.362;12.152;2023-09-12T04:43:09;11.93;;;5.87;;
19301;SDS011;9785;59.362;12.152;2023-09-12T04:45:37;9.70;;;6.97;;
19301;SDS011;9785;59.362;12.152;2023-09-12T04:48:06;10.63;;;7.37;;
19301;SDS011;9785;59.362;12.152;2023-09-12T04:50:37;12.07;;;7.37;;
19301;SDS011;9785;59.362;12.152;2023-09-12T04:53:08;9.80;;;6.83;;
19301;SDS011;9785;59.362;12.152;2023-09-12T04:55:38;9.17;;;7.13;;
19301;SDS011;9785;59.362;12.152;2023-09-12T04:58:07;11.00;;;7.10;;
19301;SDS011;9785;59.362;12.152;2023-09-12T05:00:35;10.20;;;6.70;;
19301;SDS011;9785;59.362;12.152;2023-09-12T05:03:04;9.87;;;6.60;;
19301;SDS011;9785;59.362;12.152;2023-09-12T05:05:33;7.23;;;5.60;;
19301;SDS011;9785;59.362;12.152;2023-09-12T05:08:03;10.77;;;6.07;;
19301;SDS011;9785;59.362;12.152;2023-09-12T05:10:33;13.37;;;6.33;;
19301;SDS011;9785;59.362;12.152;2023-09-12T05:13:02;8.70;;;5.80;;
19301;SDS011;9785;59.362;12.152;2023-09-12T05:15:30;8.27;;;5.77;;
19301;SDS011;9785;59.362;12.152;2023-09-12T05:17:59;8.37;;;5.90;;
19301;SDS011;9785;59.362;12.152;2023-09-12T05:20:27;9.97;;;6.00;;
19301;SDS011;9785;59.362;12.152;2023-09-12T05:22:55;7.73;;;5.57;;
19301;SDS011;9785;59.362;12.152;2023-09-12T05:25:24;9.13;;;6.03;;
19301;SDS011;9785;59.362;12.152;2023-09-12T05:27:54;10.43;;;5.90;;
19301;SDS011;9785;59.362;12.152;2023-09-12T05:30:23;9.77;;;6.00;;
19301;SDS011;9785;59.362;12.152;2023-09-12T05:32:52;7.57;;;5.50;;
19301;SDS011;9785;59.362;12.152;2023-09-12T05:35:20;8.53;;;5.97;;
19301;SDS011;9785;59.362;12.152;2023-09-12T05:37:49;10.97;;;6.30;;
19301;SDS011;9785;59.362;12.152;2023-09-12T05:40:17;7.57;;;5.77;;
19301;SDS011;9785;59.362;12.152;2023-09-12T05:42:45;9.57;;;6.68;;
19301;SDS011;9785;59.362;12.152;2023-09-12T05:45:15;7.23;;;5.97;;
19301;SDS011;9785;59.362;12.152;2023-09-12T05:47:44;9.00;;;5.80;;
19301;SDS011;9785;59.362;12.152;2023-09-12T05:50:12;10.00;;;5.93;;
19301;SDS011;9785;59.362;12.152;2023-09-12T05:52:41;8.30;;;5.60;;
19301;SDS011;9785;59.362;12.152;2023-09-12T05:55:09;9.07;;;5.30;;
19301;SDS011;9785;59.362;12.152;2023-09-12T05:57:37;11.30;;;5.57;;
19301;SDS011;9785;59.362;12.152;2023-09-12T06:00:06;6.57;;;5.03;;
19301;SDS011;9785;59.362;12.152;2023-09-12T06:02:39;7.73;;;5.17;;
19301;SDS011;9785;59.362;12.152;2023-09-12T06:05:08;7.03;;;5.47;;
19301;SDS011;9785;59.362;12.152;2023-09-12T06:07:37;7.77;;;5.17;;
19301;SDS011;9785;59.362;12.152;2023-09-12T06:10:08;9.00;;;4.90;;
19301;SDS011;9785;59.362;12.152;2023-09-12T06:12:36;7.27;;;4.97;;
19301;SDS011;9785;59.362;12.152;2023-09-12T06:15:05;7.83;;;5.00;;
19301;SDS011;9785;59.362;12.152;2023-09-12T06:17:34;6.53;;;4.70;;
19301;SDS011;9785;59.362;12.152;2023-09-12T06:20:05;6.20;;;4.50;;
19301;SDS011;9785;59.362;12.152;2023-09-12T06:22:34;7.27;;;4.60;;
19301;SDS011;9785;59.362;12.152;2023-09-12T06:25:02;7.43;;;5.20;;
19301;SDS011;9785;59.362;12.152;2023-09-12T06:27:31;5.83;;;3.80;;
19301;SDS011;9785;59.362;12.152;2023-09-12T06:29:59;10.50;;;4.40;;
19301;SDS011;9785;59.362;12.152;2023-09-12T06:32:28;7.13;;;4.00;;
19301;SDS011;9785;59.362;12.152;2023-09-12T06:34:56;5.87;;;4.07;;
19301;SDS011;9785;59.362;12.152;2023-09-12T06:37:26;6.90;;;4.23;;
19301;SDS011;9785;59.362;12.152;2023-09-12T06:39:54;7.03;;;4.07;;
19301;SDS011;9785;59.362;12.152;2023-09-12T06:42:23;5.43;;;4.20;;
19301;SDS011;9785;59.362;12.152;2023-09-12T06:44:51;4.87;;;3.80;;
19301;SDS011;9785;59.362;12.152;2023-09-12T06:47:19;3.93;;;3.57;;
19301;SDS011;9785;59.362;12.152;2023-09-12T06:49:48;7.43;;;3.53;;
19301;SDS011;9785;59.362;12.152;2023-09-12T06:52:21;6.23;;;3.53;;
19301;SDS011;9785;59.362;12.152;2023-09-12T06:54:51;3.00;;;2.80;;
19301;SDS011;9785;59.362;12.152;2023-09-12T06:57:19;8.80;;;3.80;;
19301;SDS011;9785;59.362;12.152;2023-09-12T06:59:48;6.03;;;3.20;;
19301;SDS011;9785;59.362;12.152;2023-09-12T07:02:16;4.87;;;2.80;;
19301;SDS011;9785;59.362;12.152;2023-09-12T07:04:45;2.93;;;2.73;;
19301;SDS011;9785;59.362;12.152;2023-09-12T07:07:13;2.93;;;2.73;;
19301;SDS011;9785;59.362;12.152;2023-09-12T07:09:41;4.33;;;2.77;;
19301;SDS011;9785;59.362;12.152;2023-09-12T07:12:11;3.93;;;2.90;;
19301;SDS011;9785;59.362;12.152;2023-09-12T07:14:39;4.03;;;2.70;;
19301;SDS011;9785;59.362;12.152;2023-09-12T07:17:08;5.20;;;2.87;;
19301;SDS011;9785;59.362;12.152;2023-09-12T07:19:36;4.10;;;2.90;;
19301;SDS011;9785;59.362;12.152;2023-09-12T07:22:06;3.10;;;2.80;;
19301;SDS011;9785;59.362;12.152;2023-09-12T07:24:35;5.33;;;2.90;;
19301;SDS011;9785;59.362;12.152;2023-09-12T07:27:03;5.00;;;3.07;;
19301;SDS011;9785;59.362;12.152;2023-09-12T07:29:33;4.43;;;2.83;;
19301;SDS011;9785;59.362;12.152;2023-09-12T07:32:01;3.33;;;2.77;;
19301;SDS011;9785;59.362;12.152;2023-09-12T07:34:30;3.63;;;2.73;;
19301;SDS011;9785;59.362;12.152;2023-09-12T07:36:58;2.70;;;2.50;;
19301;SDS011;9785;59.362;12.152;2023-09-12T07:39:26;8.40;;;3.20;;
19301;SDS011;9785;59.362;12.152;2023-09-12T07:41:55;3.30;;;2.60;;
19301;SDS011;9785;59.362;12.152;2023-09-12T07:44:23;5.60;;;3.00;;
19301;SDS011;9785;59.362;12.152;2023-09-12T07:46:53;4.50;;;2.60;;
19301;SDS011;9785;59.362;12.152;2023-09-12T07:49:21;5.97;;;2.63;;
19301;SDS011;9785;59.362;12.152;2023-09-12T07:51:52;5.33;;;2.90;;
19301;SDS011;9785;59.362;12.152;2023-09-12T07:54:23;3.97;;;2.80;;
19301;SDS011;9785;59.362;12.152;2023-09-12T07:56:51;4.57;;;2.80;;
19301;SDS011;9785;59.362;12.152;2023-09-12T07:59:19;6.40;;;2.53;;
19301;SDS011;9785;59.362;12.152;2023-09-12T08:01:48;6.70;;;2.60;;
19301;SDS011;9785;59.362;12.152;2023-09-12T08:04:19;3.57;;;2.83;;
19301;SDS011;9785;59.362;12.152;2023-09-12T08:06:47;4.33;;;2.40;;
19301;SDS011;9785;59.362;12.152;2023-09-12T08:09:24;3.93;;;2.50;;
19301;SDS011;9785;59.362;12.152;2023-09-12T08:12:13;4.27;;;2.20;;
19301;SDS011;9785;59.362;12.152;2023-09-12T08:14:42;3.17;;;2.20;;
19301;SDS011;9785;59.362;12.152;2023-09-12T08:17:11;3.03;;;2.40;;
19301;SDS011;9785;59.362;12.152;2023-09-12T08:19:42;6.17;;;2.47;;
19301;SDS011;9785;59.362;12.152;2023-09-12T08:22:11;6.60;;;2.90;;
19301;SDS011;9785;59.362;12.152;2023-09-12T08:24:39;3.00;;;2.50;;
19301;SDS011;9785;59.362;12.152;2023-09-12T08:27:08;6.83;;;2.93;;
19301;SDS011;9785;59.362;12.152;2023-09-12T08:29:36;5.43;;;2.53;;
19301;SDS011;9785;59.362;12.152;2023-09-12T08:32:07;6.60;;;2.90;;
19301;SDS011;9785;59.362;12.152;2023-09-12T08:34:36;5.63;;;2.63;;
19301;SDS011;9785;59.362;12.152;2023-09-12T08:37:06;5.67;;;2.53;;
19301;SDS011;9785;59.362;12.152;2023-09-12T08:39:39;3.77;;;2.77;;
19301;SDS011;9785;59.362;12.152;2023-09-12T08:42:10;6.23;;;2.70;;
19301;SDS011;9785;59.362;12.152;2023-09-12T08:44:41;3.67;;;2.70;;
19301;SDS011;9785;59.362;12.152;2023-09-12T08:47:10;2.73;;;2.40;;
19301;SDS011;9785;59.362;12.152;2023-09-12T08:49:39;8.30;;;2.83;;
19301;SDS011;9785;59.362;12.152;2023-09-12T08:52:10;5.90;;;2.60;;
19301;SDS011;9785;59.362;12.152;2023-09-12T08:54:38;5.20;;;2.37;;
19301;SDS011;9785;59.362;12.152;2023-09-12T08:57:07;5.43;;;2.40;;
19301;SDS011;9785;59.362;12.152;2023-09-12T08:59:38;3.73;;;2.20;;
19301;SDS011;9785;59.362;12.152;2023-09-12T09:02:08;5.13;;;2.37;;
19301;SDS011;9785;59.362;12.152;2023-09-12T09:04:39;5.80;;;2.20;;
19301;SDS011;9785;59.362;12.152;2023-09-12T09:07:10;5.93;;;2.33;;
19301;SDS011;9785;59.362;12.152;2023-09-12T09:09:40;4.97;;;2.20;;
19301;SDS011;9785;59.362;12.152;2023-09-12T09:12:09;4.00;;;2.10;;
19301;SDS011;9785;59.362;12.152;2023-09-12T09:14:38;3.57;;;2.10;;
19301;SDS011;9785;59.362;12.152;2023-09-12T09:17:07;4.77;;;1.90;;
19301;SDS011;9785;59.362;12.152;2023-09-12T09:19:54;4.20;;;2.10;;
19301;SDS011;9785;59.362;12.152;2023-09-12T09:22:24;5.30;;;2.13;;
19301;SDS011;9785;59.362;12.152;2023-09-12T09:24:57;3.83;;;2.20;;
19301;SDS011;9785;59.362;12.152;2023-09-12T09:27:38;8.67;;;2.30;;
19301;SDS011;9785;59.362;12.152;2023-09-12T09:30:07;4.43;;;2.13;;
19301;SDS011;9785;59.362;12.152;2023-09-12T09:32:36;2.87;;;1.90;;
19301;SDS011;9785;59.362;12.152;2023-09-12T09:35:05;4.37;;;2.30;;
19301;SDS011;9785;59.362;12.152;2023-09-12T09:37:36;5.00;;;2.00;;
19301;SDS011;9785;59.362;12.152;2023-09-12T09:40:05;5.73;;;2.37;;
19301;SDS011;9785;59.362;12.152;2023-09-12T09:42:34;4.40;;;2.00;;
19301;SDS011;9785;59.362;12.152;2023-09-12T09:45:03;2.67;;;1.87;;
19301;SDS011;9785;59.362;12.152;2023-09-12T09:47:32;3.43;;;1.87;;
19301;SDS011;9785;59.362;12.152;2023-09-12T09:50:01;5.47;;;2.00;;
19301;SDS011;9785;59.362;12.152;2023-09-12T09:52:30;3.97;;;2.03;;
19301;SDS011;9785;59.362;12.152;2023-09-12T09:54:59;5.50;;;2.17;;
19301;SDS011;9785;59.362;12.152;2023-09-12T09:57:28;3.87;;;1.90;;
19301;SDS011;9785;59.362;12.152;2023-09-12T09:59:56;5.60;;;2.00;;
19301;SDS011;9785;59.362;12.152;2023-09-12T10:02:24;8.00;;;2.17;;
19301;SDS011;9785;59.362;12.152;2023-09-12T10:04:55;6.00;;;1.77;;
19301;SDS011;9785;59.362;12.152;2023-09-12T10:07:27;3.50;;;1.90;;
19301;SDS011;9785;59.362;12.152;2023-09-12T10:09:59;5.77;;;2.30;;
19301;SDS011;9785;59.362;12.152;2023-09-12T10:12:30;4.23;;;1.50;;
19301;SDS011;9785;59.362;12.152;2023-09-12T10:15:02;3.43;;;1.80;;
19301;SDS011;9785;59.362;12.152;2023-09-12T10:17:37;4.60;;;1.90;;
19301;SDS011;9785;59.362;12.152;2023-09-12T10:20:12;3.40;;;1.63;;
19301;SDS011;9785;59.362;12.152;2023-09-12T10:22:48;4.80;;;1.70;;
19301;SDS011;9785;59.362;12.152;2023-09-12T10:25:24;3.27;;;1.30;;
19301;SDS011;9785;59.362;12.152;2023-09-12T10:27:54;4.07;;;1.90;;
19301;SDS011;9785;59.362;12.152;2023-09-12T10:30:23;4.23;;;1.47;;
19301;SDS011;9785;59.362;12.152;2023-09-12T10:32:53;2.13;;;1.40;;
19301;SDS011;9785;59.362;12.152;2023-09-12T10:35:22;5.37;;;1.50;;
19301;SDS011;9785;59.362;12.152;2023-09-12T10:37:50;5.20;;;2.00;;
19301;SDS011;9785;59.362;12.152;2023-09-12T10:40:21;4.53;;;1.63;;
19301;SDS011;9785;59.362;12.152;2023-09-12T10:42:50;2.10;;;1.50;;
19301;SDS011;9785;59.362;12.152;2023-09-12T10:45:20;1.60;;;1.50;;
19301;SDS011;9785;59.362;12.152;2023-09-12T10:47:48;4.00;;;2.23;;
19301;SDS011;9785;59.362;12.152;2023-09-12T10:50:17;3.23;;;1.70;;
19301;SDS011;9785;59.362;12.152;2023-09-12T10:52:47;4.63;;;1.63;;
19301;SDS011;9785;59.362;12.152;2023-09-12T10:55:16;3.20;;;1.63;;
19301;SDS011;9785;59.362;12.152;2023-09-12T10:58:02;5.63;;;1.80;;
19301;SDS011;9785;59.362;12.152;2023-09-12T11:00:32;2.63;;;1.50;;
19301;SDS011;9785;59.362;12.152;2023-09-12T11:06:04;4.93;;;1.67;;
19301;SDS011;9785;59.362;12.152;2023-09-12T11:08:54;1.60;;;1.50;;
19301;SDS011;9785;59.362;12.152;2023-09-12T11:11:45;2.83;;;1.70;;
19301;SDS011;9785;59.362;12.152;2023-09-12T11:14:16;6.23;;;1.80;;
19301;SDS011;9785;59.362;12.152;2023-09-12T11:19:48;3.67;;;1.40;;
19301;SDS011;9785;59.362;12.152;2023-09-12T11:22:22;2.80;;;1.60;;
19301;SDS011;9785;59.362;12.152;2023-09-12T11:24:51;2.97;;;1.50;;
19301;SDS011;9785;59.362;12.152;2023-09-12T11:27:23;2.80;;;1.33;;
19301;SDS011;9785;59.362;12.152;2023-09-12T11:30:01;3.80;;;1.42;;
19301;SDS011;9785;59.362;12.152;2023-09-12T11:32:31;5.60;;;1.83;;
19301;SDS011;9785;59.362;12.152;2023-09-12T11:35:04;1.70;;;1.60;;
19301;SDS011;9785;59.362;12.152;2023-09-12T11:37:34;2.30;;;1.80;;
19301;SDS011;9785;59.362;12.152;2023-09-12T11:40:15;2.55;;;1.58;;
19301;SDS011;9785;59.362;12.152;2023-09-12T11:42:45;3.22;;;1.80;;
19301;SDS011;9785;59.362;12.152;2023-09-12T11:45:15;1.70;;;1.60;;
19301;SDS011;9785;59.362;12.152;2023-09-12T11:47:46;2.38;;;1.70;;
19301;SDS011;9785;59.362;12.152;2023-09-12T11:50:29;2.65;;;1.90;;
19301;SDS011;9785;59.362;12.152;2023-09-12T11:52:59;2.05;;;1.30;;
19301;SDS011;9785;59.362;12.152;2023-09-12T11:55:30;3.08;;;1.80;;
19301;SDS011;9785;59.362;12.152;2023-09-12T11:57:59;2.95;;;1.88;;
19301;SDS011;9785;59.362;12.152;2023-09-12T12:00:30;3.63;;;1.70;;
19301;SDS011;9785;59.362;12.152;2023-09-12T12:03:01;1.80;;;1.70;;
19301;SDS011;9785;59.362;12.152;2023-09-12T12:05:29;3.10;;;1.50;;
19301;SDS011;9785;59.362;12.152;2023-09-12T12:07:58;2.03;;;1.85;;
19301;SDS011;9785;59.362;12.152;2023-09-12T12:10:49;1.45;;;1.45;;
19301;SDS011;9785;59.362;12.152;2023-09-12T12:13:17;1.83;;;1.73;;
19301;SDS011;9785;59.362;12.152;2023-09-12T12:15:47;1.85;;;1.75;;
19301;SDS011;9785;59.362;12.152;2023-09-12T12:18:16;4.93;;;2.25;;
19301;SDS011;9785;59.362;12.152;2023-09-12T12:20:45;2.67;;;1.80;;
19301;SDS011;9785;59.362;12.152;2023-09-12T12:23:14;1.63;;;1.55;;
19301;SDS011;9785;59.362;12.152;2023-09-12T12:25:42;1.90;;;1.80;;
19301;SDS011;9785;59.362;12.152;2023-09-12T12:28:11;3.40;;;1.88;;
19301;SDS011;9785;59.362;12.152;2023-09-12T12:30:39;1.80;;;1.70;;
19301;SDS011;9785;59.362;12.152;2023-09-12T12:33:09;1.77;;;1.67;;
19301;SDS011;9785;59.362;12.152;2023-09-12T12:36:01;1.58;;;1.48;;
19301;SDS011;9785;59.362;12.152;2023-09-12T12:38:32;1.55;;;1.45;;
19301;SDS011;9785;59.362;12.152;2023-09-12T12:41:05;1.90;;;1.80;;
19301;SDS011;9785;59.362;12.152;2023-09-12T12:43:33;3.55;;;1.50;;
19301;SDS011;9785;59.362;12.152;2023-09-12T12:46:02;1.45;;;1.40;;
19301;SDS011;9785;59.362;12.152;2023-09-12T12:48:32;1.30;;;1.30;;
19301;SDS011;9785;59.362;12.152;2023-09-12T12:51:15;1.58;;;1.55;;
19301;SDS011;9785;59.362;12.152;2023-09-12T12:53:45;1.50;;;1.20;;
19301;SDS011;9785;59.362;12.152;2023-09-12T12:56:20;1.23;;;1.20;;
19301;SDS011;9785;59.362;12.152;2023-09-12T12:58:50;1.20;;;1.20;;
19301;SDS011;9785;59.362;12.152;2023-09-12T13:01:20;1.50;;;1.40;;
19301;SDS011;9785;59.362;12.152;2023-09-12T13:03:50;1.27;;;1.27;;
19301;SDS011;9785;59.362;12.152;2023-09-12T13:06:21;1.20;;;1.20;;
19301;SDS011;9785;59.362;12.152;2023-09-12T13:08:51;1.45;;;1.25;;
19301;SDS011;9785;59.362;12.152;2023-09-12T13:11:22;1.30;;;1.30;;
19301;SDS011;9785;59.362;12.152;2023-09-12T13:13:50;1.20;;;1.20;;
19301;SDS011;9785;59.362;12.152;2023-09-12T13:16:19;2.85;;;1.25;;
19301;SDS011;9785;59.362;12.152;2023-09-12T13:18:47;1.30;;;1.30;;
19301;SDS011;9785;59.362;12.152;2023-09-12T13:21:18;1.85;;;1.23;;
19301;SDS011;9785;59.362;12.152;2023-09-12T13:23:46;1.30;;;1.30;;
19301;SDS011;9785;59.362;12.152;2023-09-12T13:26:16;1.55;;;1.52;;
19301;SDS011;9785;59.362;12.152;2023-09-12T13:28:44;1.30;;;1.20;;
19301;SDS011;9785;59.362;12.152;2023-09-12T13:31:13;1.33;;;1.33;;
19301;SDS011;9785;59.362;12.152;2023-09-12T13:33:41;1.30;;;1.30;;
19301;SDS011;9785;59.362;12.152;2023-09-12T13:36:11;1.70;;;1.33;;
19301;SDS011;9785;59.362;12.152;2023-09-12T13:38:39;1.40;;;1.30;;
19301;SDS011;9785;59.362;12.152;2023-09-12T13:41:08;1.50;;;1.40;;
19301;SDS011;9785;59.362;12.152;2023-09-12T13:43:36;1.08;;;1.08;;
19301;SDS011;9785;59.362;12.152;2023-09-12T13:46:04;1.65;;;1.30;;
19301;SDS011;9785;59.362;12.152;2023-09-12T13:48:36;2.63;;;1.40;;
19301;SDS011;9785;59.362;12.152;2023-09-12T13:51:04;1.63;;;1.45;;
19301;SDS011;9785;59.362;12.152;2023-09-12T13:53:34;1.20;;;1.20;;
19301;SDS011;9785;59.362;12.152;2023-09-12T13:56:02;1.20;;;1.20;;
19301;SDS011;9785;59.362;12.152;2023-09-12T13:58:32;1.42;;;1.30;;
19301;SDS011;9785;59.362;12.152;2023-09-12T14:01:10;1.20;;;1.20;;
19301;SDS011;9785;59.362;12.152;2023-09-12T14:03:53;2.55;;;1.17;;
19301;SDS011;9785;59.362;12.152;2023-09-12T14:06:22;1.33;;;1.23;;
19301;SDS011;9785;59.362;12.152;2023-09-12T14:08:53;2.00;;;1.20;;
19301;SDS011;9785;59.362;12.152;2023-09-12T14:11:22;2.28;;;1.40;;
19301;SDS011;9785;59.362;12.152;2023-09-12T14:13:59;1.63;;;1.05;;
19301;SDS011;9785;59.362;12.152;2023-09-12T14:16:40;3.20;;;1.17;;
19301;SDS011;9785;59.362;12.152;2023-09-12T14:19:13;1.30;;;1.30;;
19301;SDS011;9785;59.362;12.152;2023-09-12T14:21:43;1.73;;;1.30;;
19301;SDS011;9785;59.362;12.152;2023-09-12T14:24:15;1.65;;;1.60;;
19301;SDS011;9785;59.362;12.152;2023-09-12T14:26:46;1.85;;;1.35;;
19301;SDS011;9785;59.362;12.152;2023-09-12T14:29:17;1.38;;;1.35;;
19301;SDS011;9785;59.362;12.152;2023-09-12T14:31:46;1.80;;;1.30;;
19301;SDS011;9785;59.362;12.152;2023-09-12T14:34:22;1.50;;;1.33;;
19301;SDS011;9785;59.362;12.152;2023-09-12T14:36:53;1.20;;;1.20;;
19301;SDS011;9785;59.362;12.152;2023-09-12T14:39:23;1.85;;;1.40;;
19301;SDS011;9785;59.362;12.152;2023-09-12T14:41:52;1.33;;;1.30;;
19301;SDS011;9785;59.362;12.152;2023-09-12T14:44:21;1.17;;;1.17;;
19301;SDS011;9785;59.362;12.152;2023-09-12T14:46:49;1.20;;;1.20;;
19301;SDS011;9785;59.362;12.152;2023-09-12T14:49:18;1.80;;;1.20;;
19301;SDS011;9785;59.362;12.152;2023-09-12T14:51:46;1.23;;;1.20;;
19301;SDS011;9785;59.362;12.152;2023-09-12T14:54:15;1.30;;;1.20;;
19301;SDS011;9785;59.362;12.152;2023-09-12T14:56:44;1.30;;;1.30;;
19301;SDS011;9785;59.362;12.152;2023-09-12T14:59:13;1.10;;;0.98;;
19301;SDS011;9785;59.362;12.152;2023-09-12T15:01:43;1.17;;;1.17;;
19301;SDS011;9785;59.362;12.152;2023-09-12T15:04:11;1.02;;;1.02;;